Time;durP1;ratioP1;P1;durP2;ratioP2;P2;SDS_P1;SDS_P2;PMS_P1;PMS_P2;Temp;Humidity;BMP_temperature;BMP_pressure;BME280_temperature;BME280_humidity;BME280_pressure;Samples;Min_cycle;Max_cycle;Signal;HPM_P1;HPM_P2
2022/10/01 00:00:56;;;;;;;6.40;5.22;;;;;;;11.44;87.81;100239.69;4998888;28;20107;-84
2022/10/01 00:03:24;;;;;;;6.95;5.10;;;;;;;11.40;88.19;100243.22;4998903;28;20034;-84
2022/10/01 00:06:02;;;;;;;8.82;4.80;;;;;;;11.44;87.51;100237.91;5016381;28;20028;-85
2022/10/01 00:08:29;;;;;;;6.47;5.00;;;;;;;11.44;87.63;100226.44;5016441;28;20022;-84
2022/10/01 00:10:54;;;;;;;7.10;4.65;;;;;;;11.44;87.36;100208.81;5016126;28;20030;-85
2022/10/01 00:13:19;;;;;;;8.25;5.35;;;;;;;11.37;87.51;100217.63;4998478;28;20029;-85
2022/10/01 00:15:45;;;;;;;7.68;4.57;;;;;;;11.40;88.28;100209.69;4998842;28;20026;-85
2022/10/01 00:18:11;;;;;;;6.85;5.05;;;;;;;11.37;88.46;100203.53;5016248;28;20064;-85
2022/10/01 00:20:42;;;;;;;7.00;4.80;;;;;;;11.37;88.46;100180.59;4999334;28;20121;-84
2022/10/01 00:23:11;;;;;;;7.88;5.13;;;;;;;11.35;88.67;100173.53;5016084;28;20462;-85
2022/10/01 00:25:37;;;;;;;6.63;4.72;;;;;;;11.35;88.93;100184.13;4998950;28;20053;-84
2022/10/01 00:28:02;;;;;;;6.32;4.72;;;;;;;11.29;89.30;100171.81;4998352;28;20490;-85
2022/10/01 00:30:27;;;;;;;7.63;5.43;;;;;;;11.32;89.43;100187.69;4966539;28;20030;-85
2022/10/01 00:32:54;;;;;;;6.10;4.63;;;;;;;11.33;88.86;100177.97;4998354;28;20508;-86
2022/10/01 00:35:21;;;;;;;8.43;4.97;;;;;;;11.36;88.13;100173.56;4982340;28;20037;-85
2022/10/01 00:37:51;;;;;;;7.53;5.30;;;;;;;11.35;88.56;100173.53;5015841;28;20026;-85
2022/10/01 00:40:20;;;;;;;5.90;4.70;;;;;;;11.26;88.73;100127.75;5016648;28;20358;-85
2022/10/01 00:42:47;;;;;;;8.25;4.40;;;;;;;11.36;88.94;100148.88;5015475;28;20117;-84
2022/10/01 00:45:15;;;;;;;8.93;5.07;;;;;;;11.34;88.73;100180.59;5015879;28;20029;-85
2022/10/01 00:48:00;;;;;;;5.47;4.50;;;;;;;11.37;88.30;100180.59;5015797;28;20022;-85
2022/10/01 00:50:32;;;;;;;8.00;4.72;;;;;;;11.38;88.81;100181.47;4981652;28;20495;-86
2022/10/01 00:53:02;;;;;;;10.50;4.93;;;;;;;11.31;88.89;100158.59;5015651;28;20049;-85
2022/10/01 00:55:32;;;;;;;6.40;4.78;;;;;;;11.35;89.32;100178.84;5015462;28;20108;-86
2022/10/01 00:57:59;;;;;;;5.57;4.50;;;;;;;11.37;89.43;100167.38;4997899;28;20060;-86
2022/10/01 01:00:25;;;;;;;5.13;4.28;;;;;;;11.30;89.73;100170.91;5015794;28;20051;-86
2022/10/01 01:02:51;;;;;;;7.40;5.00;;;;;;;11.32;89.87;100158.59;5015553;28;20486;-85
2022/10/01 01:05:22;;;;;;;6.40;4.22;;;;;;;11.30;90.21;100152.41;4997214;28;20060;-86
2022/10/01 01:07:51;;;;;;;6.88;4.60;;;;;;;11.34;90.84;100201.75;5015443;28;20065;-86
2022/10/01 01:10:22;;;;;;;9.57;4.45;;;;;;;11.32;91.10;100187.69;4998093;28;20386;-85
2022/10/01 01:13:15;;;;;;;8.07;4.72;;;;;;;11.31;91.20;100185.06;5015383;28;20021;-85
2022/10/01 01:16:04;;;;;;;6.32;4.43;;;;;;;11.25;92.01;100144.47;5015253;28;20022;-85
2022/10/01 01:18:49;;;;;;;9.68;4.40;;;;;;;11.23;92.19;100127.75;5015159;28;20037;-85
2022/10/01 01:21:27;;;;;;;5.75;4.20;;;;;;;11.23;92.27;100148.91;5015265;28;20045;-85
2022/10/01 01:24:11;;;;;;;6.63;4.55;;;;;;;11.17;93.82;100130.41;5015115;28;20124;-85
2022/10/01 01:26:59;;;;;;;6.88;4.15;;;;;;;11.16;93.96;100102.22;5014944;28;20459;-85
2022/10/01 01:29:28;;;;;;;4.30;3.53;;;;;;;11.11;94.11;100058.19;5015756;28;20057;-85
2022/10/01 01:32:00;;;;;;;6.65;3.90;;;;;;;11.12;94.35;100052.00;5015156;28;20039;-84
2022/10/01 01:34:29;;;;;;;6.00;4.10;;;;;;;11.14;94.38;100034.38;5015868;28;20054;-83
2022/10/01 01:37:00;;;;;;;6.35;4.15;;;;;;;11.07;94.24;100015.00;4997371;28;20029;-84
2022/10/01 01:39:30;;;;;;;6.25;3.92;;;;;;;11.04;95.17;99991.22;5015047;28;20451;-84
2022/10/01 01:42:00;;;;;;;5.97;3.85;;;;;;;11.06;94.86;100004.44;5014723;28;20025;-84
2022/10/01 01:44:31;;;;;;;5.47;3.60;;;;;;;11.05;95.44;99987.72;4996862;28;20022;-84
2022/10/01 01:46:58;;;;;;;5.05;3.75;;;;;;;11.03;95.29;100032.63;5014702;28;20045;-84
2022/10/01 01:49:24;;;;;;;6.55;3.80;;;;;;;11.07;94.84;100069.66;5014856;28;20030;-84
2022/10/01 01:52:03;;;;;;;9.10;3.88;;;;;;;11.10;95.29;100067.00;4997272;28;20124;-84
2022/10/01 01:54:28;;;;;;;5.75;4.13;;;;;;;11.03;96.03;100072.28;5014953;28;20034;-85
2022/10/01 01:56:55;;;;;;;5.28;3.80;;;;;;;11.04;95.92;100063.47;5014519;28;20485;-83
2022/10/01 01:59:20;;;;;;;5.32;3.50;;;;;;;11.02;96.09;100035.31;5014932;28;20026;-83
2022/10/01 02:01:48;;;;;;;5.70;4.10;;;;;;;10.99;96.62;100041.47;4996797;28;20180;-84
2022/10/01 02:04:25;;;;;;;5.43;3.40;;;;;;;11.04;96.19;100041.44;4997195;28;20038;-83
2022/10/01 02:07:09;;;;;;;5.43;3.33;;;;;;;11.05;96.12;100051.16;4996735;28;20523;-83
2022/10/01 02:09:45;;;;;;;5.63;3.35;;;;;;;11.03;96.67;100044.97;5014065;28;20133;-84
2022/10/01 02:12:45;;;;;;;5.57;3.53;;;;;;;11.03;97.01;100035.28;5014585;28;20026;-84
2022/10/01 02:15:44;;;;;;;5.32;3.50;;;;;;;11.01;97.51;100044.13;4997190;28;20057;-84
2022/10/01 02:18:33;;;;;;;4.45;3.25;;;;;;;10.98;97.97;100054.69;4995713;28;20029;-84
2022/10/01 02:21:10;;;;;;;3.67;2.60;;;;;;;11.00;97.92;100029.13;4996597;28;20446;-84
2022/10/01 02:23:56;;;;;;;4.00;2.83;;;;;;;10.96;98.10;100015.06;5014265;28;20061;-84
2022/10/01 02:26:23;;;;;;;3.97;3.00;;;;;;;10.97;98.41;100030.03;5014109;28;20458;-83
2022/10/01 02:28:52;;;;;;;4.00;2.83;;;;;;;10.95;98.11;100017.69;5014111;28;20022;-82
2022/10/01 02:31:21;;;;;;;6.93;2.92;;;;;;;10.93;98.81;100023.00;5014069;28;20030;-82
2022/10/01 02:33:50;;;;;;;4.72;2.83;;;;;;;10.98;98.07;100028.25;5014211;28;20038;-83
2022/10/01 02:36:18;;;;;;;4.10;2.88;;;;;;;10.94;99.21;100013.31;5014228;28;20450;-82
2022/10/01 02:38:45;;;;;;;4.82;2.83;;;;;;;10.93;99.44;100014.19;5013950;28;20037;-83
2022/10/01 02:41:14;;;;;;;4.05;2.55;;;;;;;10.96;99.65;100009.78;5014021;28;20030;-83
2022/10/01 02:43:49;;;;;;;3.65;2.80;;;;;;;10.95;99.83;99993.91;4996254;28;20113;-83
2022/10/01 02:46:45;;;;;;;2.75;2.30;;;;;;;10.98;99.77;100008.00;4996599;28;20022;-83
2022/10/01 02:49:12;;;;;;;4.68;2.40;;;;;;;10.98;99.44;99983.31;4989207;28;20034;-82
2022/10/01 02:51:56;;;;;;;4.20;2.40;;;;;;;11.01;99.35;99985.97;5013910;28;20451;-83
2022/10/01 02:54:27;;;;;;;5.28;2.60;;;;;;;11.03;99.13;100021.19;4997066;28;20030;-82
2022/10/01 02:59:40;;;;;;;4.05;2.50;;;;;;;11.08;98.84;99989.44;5013883;28;20248;-84
2022/10/01 03:02:05;;;;;;;2.80;2.30;;;;;;;11.09;98.97;100021.19;4996579;28;20030;-84
2022/10/01 03:04:31;;;;;;;2.90;2.30;;;;;;;11.07;98.93;100007.06;5013899;28;20026;-83
2022/10/01 03:07:02;;;;;;;2.88;2.20;;;;;;;11.12;99.44;99991.19;4979972;28;20072;-83
2022/10/01 03:09:28;;;;;;;2.92;2.40;;;;;;;11.14;99.00;99973.56;5014034;28;20026;-82
2022/10/01 03:11:53;;;;;;;3.63;2.20;;;;;;;11.07;99.50;99967.41;4996860;28;20033;-83
2022/10/01 03:14:19;;;;;;;4.65;2.42;;;;;;;11.16;99.24;99998.22;4996151;28;20113;-83
2022/10/01 03:16:44;;;;;;;3.63;2.17;;;;;;;11.18;98.91;99975.31;4996132;28;20442;-83
2022/10/01 03:19:10;;;;;;;2.60;2.20;;;;;;;11.17;98.80;99989.38;4995777;28;20061;-83
2022/10/01 03:21:35;;;;;;;3.17;2.30;;;;;;;11.21;98.88;99977.91;4996352;28;20026;-83
2022/10/01 03:24:00;;;;;;;2.78;2.47;;;;;;;11.24;98.97;99996.41;4996217;28;20037;-82
2022/10/01 03:26:26;;;;;;;3.00;2.30;;;;;;;11.23;99.24;99984.94;5012670;28;20053;-83
2022/10/01 03:28:51;;;;;;;3.72;2.60;;;;;;;11.23;99.28;99982.31;4997076;28;20371;-83
2022/10/01 03:31:17;;;;;;;4.45;2.47;;;;;;;11.26;98.78;99990.22;4999665;28;20029;-83
2022/10/01 03:33:42;;;;;;;4.75;2.50;;;;;;;11.22;98.81;99977.00;4968622;28;20060;-84
2022/10/01 03:36:07;;;;;;;3.80;2.20;;;;;;;11.28;98.53;99992.84;4977276;28;20049;-84
2022/10/01 03:38:33;;;;;;;3.20;2.20;;;;;;;11.32;98.56;100002.53;4976501;28;20364;-83
2022/10/01 03:40:58;;;;;;;2.72;2.00;;;;;;;11.32;99.29;99983.16;4977920;28;20047;-83
2022/10/01 03:43:25;;;;;;;2.90;2.00;;;;;;;11.38;98.71;99991.03;4977889;28;20030;-83
2022/10/01 03:45:51;;;;;;;3.13;1.75;;;;;;;11.39;98.04;99980.47;4978039;28;20470;-83
2022/10/01 03:48:17;;;;;;;3.92;1.90;;;;;;;11.38;98.57;99981.31;4977795;28;20113;-83
2022/10/01 03:50:42;;;;;;;2.38;1.90;;;;;;;11.43;98.75;99997.16;4960358;28;20031;-84
2022/10/01 03:53:08;;;;;;;2.10;1.90;;;;;;;11.42;98.85;99976.91;4978002;28;20050;-83
2022/10/01 03:55:33;;;;;;;2.38;1.70;;;;;;;11.43;98.47;99984.81;4976054;28;20038;-82
2022/10/01 03:57:58;;;;;;;3.00;1.77;;;;;;;11.47;97.85;99989.19;4977872;28;20100;-83
2022/10/01 04:00:24;;;;;;;2.20;1.60;;;;;;;11.50;98.09;99991.81;4977295;28;20034;-83
2022/10/01 04:02:50;;;;;;;1.70;1.58;;;;;;;11.54;98.11;99987.41;4977531;28;20038;-84
2022/10/01 04:05:15;;;;;;;2.40;1.70;;;;;;;11.57;98.13;100002.38;4977518;28;20031;-84
2022/10/01 04:07:41;;;;;;;3.80;1.63;;;;;;;11.58;98.24;99999.72;4978251;28;20027;-84
2022/10/01 04:10:07;;;;;;;1.40;1.30;;;;;;;11.61;98.26;100001.47;4977034;28;20027;-83
2022/10/01 04:12:33;;;;;;;1.70;1.50;;;;;;;11.62;98.84;100001.44;4977071;28;20035;-84
2022/10/01 04:14:58;;;;;;;1.65;1.50;;;;;;;11.63;98.54;100005.84;4975944;28;20045;-83
2022/10/01 04:17:23;;;;;;;1.70;1.50;;;;;;;11.64;98.25;100012.88;4977061;28;20033;-83
2022/10/01 04:19:49;;;;;;;1.75;1.33;;;;;;;11.65;98.74;100016.41;4976072;28;20034;-84
2022/10/01 04:22:14;;;;;;;2.38;1.58;;;;;;;11.65;98.40;100005.81;4992795;28;20510;-84
2022/10/01 04:24:39;;;;;;;2.00;1.50;;;;;;;11.69;97.97;100011.13;4976069;28;20353;-84
2022/10/01 04:27:05;;;;;;;1.88;1.50;;;;;;;11.68;98.59;100005.81;4976561;28;20411;-84
2022/10/01 04:29:30;;;;;;;1.40;1.30;;;;;;;11.68;98.92;100004.03;4960000;28;20031;-84
2022/10/01 04:31:57;;;;;;;2.03;1.45;;;;;;;11.69;98.65;99999.63;4959669;28;20486;-84
2022/10/01 04:34:51;;;;;;;2.08;1.50;;;;;;;11.77;98.74;100019.84;5010280;28;20108;-84
2022/10/01 04:37:07;;;;;;;2.15;1.50;;;;;;;11.79;98.80;100001.34;5016301;28;20327;-83
2022/10/01 04:39:33;;;;;;;2.42;1.60;;;;;;;11.82;98.65;100009.25;4981778;28;20088;-84
2022/10/01 04:41:58;;;;;;;3.42;1.48;;;;;;;11.84;98.80;100019.84;5015092;28;20058;-84
2022/10/01 04:44:23;;;;;;;1.52;1.30;;;;;;;11.85;98.45;100006.59;4998094;28;20029;-84
2022/10/01 04:46:49;;;;;;;1.90;1.65;;;;;;;11.87;98.71;100023.38;4982818;28;20469;-84
2022/10/01 04:49:14;;;;;;;2.13;1.30;;;;;;;11.90;98.84;100027.75;4998207;28;20025;-84
2022/10/01 04:51:39;;;;;;;2.05;1.48;;;;;;;11.90;98.83;100028.63;4998807;28;20030;-83
2022/10/01 04:54:05;;;;;;;1.63;1.52;;;;;;;11.91;98.47;100008.34;4998052;28;20096;-84
2022/10/01 04:56:30;;;;;;;2.33;1.80;;;;;;;11.93;99.66;100031.25;4998006;28;20114;-84
2022/10/01 04:58:56;;;;;;;1.88;1.52;;;;;;;11.96;99.45;100030.34;4982162;28;20034;-84
2022/10/01 05:01:21;;;;;;;2.42;1.77;;;;;;;11.99;99.25;100041.81;5015118;28;20028;-84
2022/10/01 05:03:46;;;;;;;3.00;1.70;;;;;;;12.00;99.88;100042.69;5015022;28;20458;-84
2022/10/01 05:06:12;;;;;;;2.60;1.80;;;;;;;12.01;99.59;100037.34;5015415;28;20034;-83
2022/10/01 05:08:37;;;;;;;3.80;1.70;;;;;;;12.07;98.97;100038.19;5015099;28;20037;-83
2022/10/01 05:11:03;;;;;;;2.03;1.60;;;;;;;12.09;99.11;100039.94;5015505;28;20037;-83
2022/10/01 05:13:28;;;;;;;3.70;1.90;;;;;;;12.09;99.58;100045.25;5015541;28;20022;-83
2022/10/01 05:15:54;;;;;;;3.70;1.90;;;;;;;12.10;99.69;100036.41;4997890;28;20393;-83
2022/10/01 05:18:19;;;;;;;4.13;1.98;;;;;;;12.10;99.58;100046.13;5015270;28;20026;-84
2022/10/01 05:20:45;;;;;;;2.83;1.90;;;;;;;12.14;99.62;100054.03;4981342;28;20034;-83
2022/10/01 05:23:10;;;;;;;2.80;1.90;;;;;;;12.13;99.50;100054.94;5015038;28;20109;-83
2022/10/01 05:25:35;;;;;;;4.70;1.83;;;;;;;12.14;99.82;100059.31;4997154;28;20377;-83
2022/10/01 05:28:04;;;;;;;3.33;1.92;;;;;;;12.17;100.00;100066.38;4997669;28;20076;-82
2022/10/01 05:30:29;;;;;;;2.67;2.10;;;;;;;12.17;99.96;100063.72;5015437;28;20144;-83
2022/10/01 05:32:57;;;;;;;5.20;2.50;;;;;;;12.14;100.00;100061.97;5014271;28;20128;-83
2022/10/01 05:35:23;;;;;;;3.13;2.05;;;;;;;12.15;100.00;100062.84;5014918;28;20029;-82
2022/10/01 05:37:52;;;;;;;3.90;2.30;;;;;;;12.17;100.00;100076.97;4997988;28;20026;-83
2022/10/01 05:40:18;;;;;;;3.10;2.25;;;;;;;12.21;100.00;100081.34;4997148;28;20502;-83
2022/10/01 05:42:45;;;;;;;3.45;2.40;;;;;;;12.23;100.00;100083.09;4997784;28;20033;-83
2022/10/01 05:45:11;;;;;;;3.05;2.40;;;;;;;12.22;100.00;100077.81;4997206;28;20030;-82
2022/10/01 05:47:37;;;;;;;5.30;2.83;;;;;;;12.27;100.00;100087.47;5014724;28;20033;-82
2022/10/01 05:50:03;;;;;;;4.65;2.67;;;;;;;12.29;100.00;100090.13;4997809;28;20030;-82
2022/10/01 05:52:28;;;;;;;6.97;2.80;;;;;;;12.31;100.00;100098.91;4996875;28;20030;-82
2022/10/01 05:54:54;;;;;;;4.75;2.88;;;;;;;12.35;100.00;100105.06;5014512;28;20037;-82
2022/10/01 05:57:19;;;;;;;3.67;2.90;;;;;;;12.31;100.00;100090.97;5014301;28;20053;-82
2022/10/01 05:59:44;;;;;;;4.10;2.90;;;;;;;12.36;100.00;100101.53;5014157;28;20037;-82
2022/10/01 06:02:10;;;;;;;7.50;3.08;;;;;;;12.37;100.00;100112.09;5014698;28;20442;-83
2022/10/01 06:04:35;;;;;;;4.68;3.00;;;;;;;12.34;100.00;100101.56;4980512;28;20030;-83
2022/10/01 06:07:00;;;;;;;5.18;3.35;;;;;;;12.41;100.00;100105.00;4996785;28;20034;-83
2022/10/01 06:09:26;;;;;;;6.18;3.65;;;;;;;12.39;100.00;100099.72;4997705;28;20034;-83
2022/10/01 06:11:51;;;;;;;6.57;3.30;;;;;;;12.42;100.00;100107.66;4980652;28;20030;-83
2022/10/01 06:14:17;;;;;;;6.90;3.22;;;;;;;12.47;100.00;100115.56;4996910;28;20030;-84
2022/10/01 06:16:42;;;;;;;6.78;3.20;;;;;;;12.47;100.00;100112.91;4964326;28;20030;-83
2022/10/01 06:19:08;;;;;;;4.50;3.30;;;;;;;12.49;100.00;100117.28;5014264;28;20029;-86
2022/10/01 06:21:34;;;;;;;5.93;3.50;;;;;;;12.49;100.00;100124.38;4996344;28;20029;-86
2022/10/01 06:23:59;;;;;;;13.95;3.58;;;;;;;12.49;100.00;100130.53;4996771;28;20033;-85
2022/10/01 06:26:25;;;;;;;4.18;3.45;;;;;;;12.50;100.00;100128.78;4980231;28;20034;-85
2022/10/01 06:28:51;;;;;;;5.60;3.60;;;;;;;12.51;100.00;100126.13;5014298;28;20118;-85
2022/10/01 06:31:18;;;;;;;9.48;4.22;;;;;;;12.54;100.00;100135.81;5014139;28;20029;-84
2022/10/01 06:33:43;;;;;;;5.60;3.63;;;;;;;12.52;100.00;100138.47;4966183;28;20055;-84
2022/10/01 06:36:09;;;;;;;4.57;3.97;;;;;;;12.57;100.00;100141.09;4973909;28;20022;-85
2022/10/01 06:38:35;;;;;;;5.13;3.95;;;;;;;12.59;100.00;100141.06;4974023;28;20073;-85
2022/10/01 06:41:03;;;;;;;5.18;4.03;;;;;;;12.60;100.00;100140.19;4975014;28;20101;-85
2022/10/01 06:43:30;;;;;;;8.20;4.85;;;;;;;12.64;100.00;100142.81;4973551;28;20035;-85
2022/10/01 06:45:55;;;;;;;10.07;5.00;;;;;;;12.64;100.00;100147.22;4990561;28;20030;-85
2022/10/01 06:48:21;;;;;;;7.38;4.95;;;;;;;12.68;100.00;100148.97;4974613;28;20023;-85
2022/10/01 06:50:48;;;;;;;6.75;5.10;;;;;;;12.65;100.00;100133.94;4974693;28;20030;-86
2022/10/01 06:53:16;;;;;;;6.63;5.18;;;;;;;12.69;100.00;100132.16;4975374;28;20027;-85
2022/10/01 06:55:42;;;;;;;6.90;4.22;;;;;;;12.74;100.00;100147.13;4974022;28;20035;-85
2022/10/01 06:58:19;;;;;;;8.63;4.85;;;;;;;12.77;100.00;100160.34;4973638;28;20459;-85
2022/10/01 07:00:46;;;;;;;9.43;5.10;;;;;;;12.83;100.00;100150.56;4974781;28;20026;-84
2022/10/01 07:03:15;;;;;;;10.50;4.80;;;;;;;12.80;100.00;100140.88;4974606;28;20090;-84
2022/10/01 07:05:41;;;;;;;6.35;4.90;;;;;;;12.92;100.00;100155.78;4978256;28;20027;-84
2022/10/01 07:08:06;;;;;;;7.30;5.15;;;;;;;13.01;100.00;100161.00;4976976;28;20023;-84
2022/10/01 07:10:33;;;;;;;7.97;5.28;;;;;;;13.02;100.00;100158.34;4993456;28;20498;-84
2022/10/01 07:13:09;;;;;;;9.73;5.43;;;;;;;13.08;100.00;100167.13;4977464;28;20038;-84
2022/10/01 07:15:35;;;;;;;7.40;5.38;;;;;;;13.12;100.00;100177.69;4978470;28;20023;-83
2022/10/01 07:18:01;;;;;;;10.38;5.70;;;;;;;13.18;100.00;100176.72;4977169;28;20478;-83
2022/10/01 07:20:27;;;;;;;8.48;5.50;;;;;;;13.18;100.00;100158.16;4978884;28;20039;-83
2022/10/01 07:22:57;;;;;;;9.02;6.00;;;;;;;13.19;100.00;100155.50;4978147;28;20046;-83
2022/10/01 07:25:24;;;;;;;8.18;5.88;;;;;;;13.31;100.00;100172.19;4978113;28;20027;-83
2022/10/01 07:27:53;;;;;;;7.68;5.85;;;;;;;13.36;100.00;100175.69;4978226;28;20031;-83
2022/10/01 07:30:18;;;;;;;9.25;6.18;;;;;;;13.43;100.00;100183.56;4978722;28;20033;-83
2022/10/01 07:32:43;;;;;;;8.45;6.30;;;;;;;13.53;100.00;100182.56;4984401;28;20041;-83
2022/10/01 07:35:09;;;;;;;8.70;6.35;;;;;;;13.60;100.00;100178.06;5017688;28;20393;-83
2022/10/01 07:37:35;;;;;;;8.85;6.40;;;;;;;13.69;100.00;100182.38;5017626;28;20037;-83
2022/10/01 07:40:01;;;;;;;8.70;6.30;;;;;;;13.74;100.00;100188.50;4999519;28;20505;-83
2022/10/01 07:42:26;;;;;;;12.25;6.45;;;;;;;13.77;100.00;100207.91;4999999;28;20041;-83
2022/10/01 07:44:52;;;;;;;10.15;6.43;;;;;;;13.78;100.00;100209.66;4983380;28;20026;-83
2022/10/01 07:47:17;;;;;;;11.38;5.93;;;;;;;13.77;100.00;100209.69;5016907;28;20455;-83
2022/10/01 07:49:43;;;;;;;12.73;6.25;;;;;;;13.74;100.00;100212.38;4999480;28;20033;-82
2022/10/01 07:52:08;;;;;;;10.13;6.40;;;;;;;13.72;100.00;100214.19;5016421;28;20037;-83
2022/10/01 07:54:33;;;;;;;10.52;5.65;;;;;;;13.70;100.00;100231.91;5016366;28;20103;-83
2022/10/01 07:56:59;;;;;;;10.48;6.85;;;;;;;13.66;100.00;100228.44;5016825;28;20030;-87
2022/10/01 07:59:26;;;;;;;8.18;6.07;;;;;;;13.65;100.00;100233.75;5016330;28;20054;-87
2022/10/01 08:01:52;;;;;;;6.25;4.60;;;;;;;13.59;100.00;100237.34;4999152;28;20037;-87
2022/10/01 08:07:04;;;;;;;8.18;4.80;;;;;;;13.54;99.64;100241.84;5017107;28;20091;-87
2022/10/01 08:09:30;;;;;;;8.25;6.03;;;;;;;13.56;100.00;100241.81;4999007;28;20033;-85
2022/10/01 08:11:55;;;;;;;9.40;6.90;;;;;;;13.55;100.00;100238.28;5016737;28;20022;-85
2022/10/01 08:14:21;;;;;;;15.63;9.50;;;;;;;13.61;100.00;100243.50;4998484;28;20068;-85
2022/10/01 08:16:46;;;;;;;13.52;9.65;;;;;;;13.63;100.00;100249.69;5015171;28;20124;-85
2022/10/01 08:19:13;;;;;;;14.93;9.00;;;;;;;13.65;100.00;100254.97;5016489;28;20053;-84
2022/10/01 08:21:40;;;;;;;12.13;8.60;;;;;;;13.71;100.00;100252.28;4998606;28;20029;-84
2022/10/01 08:24:05;;;;;;;10.13;8.10;;;;;;;13.80;100.00;100275.19;5016479;28;20034;-84
2022/10/01 08:26:31;;;;;;;10.75;8.18;;;;;;;13.83;100.00;100264.50;5016146;28;20117;-83
2022/10/01 08:28:57;;;;;;;13.93;9.18;;;;;;;13.86;100.00;100277.75;5015888;28;20056;-83
2022/10/01 08:31:23;;;;;;;12.23;9.45;;;;;;;13.91;100.00;100276.78;5016364;28;20362;-83
2022/10/01 08:33:49;;;;;;;13.90;9.05;;;;;;;13.96;100.00;100274.09;4998305;28;20046;-83
2022/10/01 08:36:15;;;;;;;11.32;7.65;;;;;;;14.07;100.00;100288.13;5016165;28;20061;-83
2022/10/01 08:38:44;;;;;;;12.25;8.52;;;;;;;14.15;100.00;100278.28;5014578;28;20516;-84
2022/10/01 08:41:51;;;;;;;13.50;8.07;;;;;;;14.48;100.00;100289.38;5015829;28;20018;-84
2022/10/01 08:44:26;;;;;;;11.32;7.93;;;;;;;14.65;100.00;100284.72;5016589;28;20022;-84
2022/10/01 08:46:57;;;;;;;10.88;7.05;;;;;;;14.67;100.00;100292.66;5016257;28;20080;-84
2022/10/01 08:49:36;;;;;;;10.80;7.30;;;;;;;14.63;100.00;100286.50;4998963;28;20029;-83
2022/10/01 08:52:28;;;;;;;12.20;6.55;;;;;;;14.59;99.56;100289.22;5016302;28;20022;-84
2022/10/01 08:55:04;;;;;;;12.10;6.10;;;;;;;14.55;99.30;100291.03;5014209;28;20036;-84
2022/10/01 08:57:39;;;;;;;9.27;5.63;;;;;;;14.87;100.00;100287.03;5015293;28;20033;-84
2022/10/01 09:00:10;;;;;;;8.88;5.28;;;;;;;15.27;97.83;100295.22;5016017;28;20022;-84
2022/10/01 09:02:41;;;;;;;6.75;5.03;;;;;;;15.51;95.83;100297.47;4997807;28;20068;-84
2022/10/01 09:05:19;;;;;;;8.25;4.55;;;;;;;15.51;93.93;100300.13;5015037;28;20374;-84
2022/10/01 09:07:44;;;;;;;7.05;4.05;;;;;;;15.48;93.21;100299.31;5015612;28;20034;-84
2022/10/01 09:10:42;;;;;;;6.70;3.83;;;;;;;15.77;94.60;100307.66;5015334;28;20494;-83
2022/10/01 09:13:26;;;;;;;8.05;3.65;;;;;;;16.17;92.29;100295.31;4993767;28;20092;-84
2022/10/01 09:16:04;;;;;;;7.32;3.55;;;;;;;16.61;91.56;100305.00;5015648;28;20026;-84
2022/10/01 09:18:36;;;;;;;9.85;3.70;;;;;;;17.00;89.10;100313.03;5015376;28;20083;-84
2022/10/01 09:21:10;;;;;;;9.10;3.70;;;;;;;17.27;87.74;100312.34;5014802;28;20030;-84
2022/10/01 09:24:00;;;;;;;7.30;3.60;;;;;;;17.43;84.94;100314.63;4997471;28;20756;-84
2022/10/01 09:26:25;;;;;;;8.65;3.50;;;;;;;17.68;85.17;100325.53;4996723;28;20454;-84
2022/10/01 09:28:54;;;;;;;9.18;3.65;;;;;;;17.92;84.07;100324.91;4997647;28;20071;-84
2022/10/01 09:31:31;;;;;;;12.38;3.72;;;;;;;18.24;84.03;100320.44;5014968;28;20104;-84
2022/10/01 09:34:07;;;;;;;8.13;3.60;;;;;;;18.43;81.27;100326.13;4997461;28;20129;-83
2022/10/01 09:36:38;;;;;;;10.82;3.53;;;;;;;18.66;81.11;100330.78;4997366;28;20476;-83
2022/10/01 09:39:27;;;;;;;6.88;2.83;;;;;;;18.61;79.40;100340.75;5014608;28;20037;-83
2022/10/01 09:41:53;;;;;;;11.85;3.35;;;;;;;18.55;78.76;100320.41;5014603;28;20030;-83
2022/10/01 09:44:27;;;;;;;14.68;3.08;;;;;;;18.50;77.39;100325.91;4997508;28;20037;-83
2022/10/01 09:46:54;;;;;;;15.18;3.20;;;;;;;18.54;78.02;100334.69;5014807;28;20029;-83
2022/10/01 09:49:33;;;;;;;9.00;2.78;;;;;;;18.38;77.76;100330.75;5014698;28;20030;-83
2022/10/01 09:52:09;;;;;;;8.68;2.92;;;;;;;18.50;76.42;100325.91;5014890;28;20030;-83
2022/10/01 09:54:44;;;;;;;15.82;3.20;;;;;;;18.71;75.42;100316.38;4997213;28;20512;-82
2022/10/01 09:57:15;;;;;;;12.57;3.00;;;;;;;18.93;74.75;100318.38;5014630;28;20096;-82
2022/10/01 09:59:52;;;;;;;9.65;2.78;;;;;;;19.26;75.70;100327.09;5014711;28;20025;-81
2022/10/01 10:02:29;;;;;;;11.85;2.75;;;;;;;19.38;72.71;100342.75;5001233;28;20038;-83
2022/10/01 10:05:05;;;;;;;12.52;3.17;;;;;;;19.47;71.12;100333.53;5005420;28;20062;-83
2022/10/01 10:07:33;;;;;;;11.95;2.67;;;;;;;19.64;69.94;100349.06;5003814;28;20041;-82
2022/10/01 10:10:35;;;;;;;15.00;3.17;;;;;;;19.62;72.18;100341.09;4997907;28;20025;-82
2022/10/01 10:13:18;;;;;;;12.88;2.80;;;;;;;19.79;71.61;100351.25;5004338;28;20455;-82
2022/10/01 10:15:58;;;;;;;15.95;3.00;;;;;;;19.90;70.54;100351.72;4997589;28;20029;-82
2022/10/01 10:18:34;;;;;;;10.65;2.78;;;;;;;19.65;69.98;100358.88;5013982;28;20030;-83
2022/10/01 10:21:06;;;;;;;12.32;3.40;;;;;;;19.30;72.63;100373.41;5014476;28;20033;-82
2022/10/01 10:23:33;;;;;;;12.10;2.75;;;;;;;19.09;73.80;100381.22;5014959;28;20026;-83
2022/10/01 10:26:06;;;;;;;15.23;3.20;;;;;;;18.69;73.33;100406.53;5014136;28;20437;-84
2022/10/01 10:28:43;;;;;;;17.20;3.63;;;;;;;18.26;75.57;100405.06;4996212;28;20030;-87
2022/10/01 10:31:16;;;;;;;10.20;3.25;;;;;;;17.83;74.15;100404.47;4996296;28;20056;-87
2022/10/01 10:34:19;;;;;;;9.65;2.70;;;;;;;17.58;76.18;100397.06;5013808;28;20046;-87
2022/10/01 10:36:45;;;;;;;11.55;2.50;;;;;;;17.64;76.99;100396.88;4996936;28;20065;-86
2022/10/01 10:39:22;;;;;;;9.70;2.50;;;;;;;17.63;77.74;100397.81;4998048;28;20366;-86
2022/10/01 10:41:50;;;;;;;10.02;2.50;;;;;;;17.73;77.72;100407.38;5000183;28;20018;-85
2022/10/01 10:44:20;;;;;;;11.07;2.72;;;;;;;17.67;76.56;100406.63;5017601;28;20175;-85
2022/10/01 10:46:46;;;;;;;14.77;2.80;;;;;;;17.61;77.48;100418.34;5018039;28;20092;-85
2022/10/01 10:49:26;;;;;;;14.05;2.97;;;;;;;17.61;77.55;100413.00;5017903;28;20026;-84
2022/10/01 10:51:54;;;;;;;12.95;2.90;;;;;;;17.57;77.86;100414.00;5017923;28;20021;-84
2022/10/01 10:54:36;;;;;;;12.82;3.10;;;;;;;17.56;77.36;100422.03;5000053;28;20136;-84
2022/10/01 10:57:29;;;;;;;13.23;3.00;;;;;;;17.48;76.54;100432.94;5018121;28;20033;-83
2022/10/01 10:59:58;;;;;;;13.18;2.80;;;;;;;17.35;75.48;100436.81;5000208;28;20033;-83
2022/10/01 11:02:28;;;;;;;11.77;2.90;;;;;;;17.27;75.50;100437.88;5000359;28;20057;-83
2022/10/01 11:04:56;;;;;;;10.85;2.53;;;;;;;17.20;74.16;100443.38;4999946;28;20100;-84
2022/10/01 11:07:25;;;;;;;15.80;3.05;;;;;;;17.18;75.41;100443.44;5000163;28;20048;-84
2022/10/01 11:10:11;;;;;;;14.32;3.08;;;;;;;17.37;73.95;100449.22;5017885;28;20064;-84
2022/10/01 11:13:07;;;;;;;14.77;2.95;;;;;;;17.89;76.29;100457.78;5017501;28;20474;-84
2022/10/01 11:15:52;;;;;;;14.63;3.45;;;;;;;18.12;72.44;100457.19;5017727;28;20076;-84
2022/10/01 11:18:29;;;;;;;9.88;2.60;;;;;;;18.09;71.89;100467.97;5017112;28;20026;-83
2022/10/01 11:21:15;;;;;;;12.15;2.90;;;;;;;18.01;71.37;100479.72;5017009;28;20033;-85
2022/10/01 11:24:09;;;;;;;14.75;3.13;;;;;;;17.91;71.74;100462.16;5016800;28;20458;-84
2022/10/01 11:26:54;;;;;;;12.85;2.80;;;;;;;18.05;71.38;100469.84;4999479;28;20030;-84
2022/10/01 11:29:46;;;;;;;9.40;2.60;;;;;;;18.36;71.01;100482.38;5017171;28;20446;-84
2022/10/01 11:32:40;;;;;;;12.23;2.92;;;;;;;18.61;70.53;100485.25;5000432;28;20346;-84
2022/10/01 11:35:21;;;;;;;10.95;2.90;;;;;;;19.06;70.51;100484.88;5017391;28;20189;-84
2022/10/01 11:37:49;;;;;;;13.57;2.85;;;;;;;19.13;66.80;100487.31;4999396;28;20025;-84
2022/10/01 11:40:28;;;;;;;15.95;3.20;;;;;;;18.94;68.14;100487.00;4999326;28;20034;-84
2022/10/01 11:43:01;;;;;;;9.88;2.60;;;;;;;18.72;69.99;100500.16;5017287;28;20061;-84